Time;durP1;ratioP1;P1;durP2;ratioP2;P2;SDS_P1;SDS_P2;PMS_P1;PMS_P2;Temp;Humidity;BMP_temperature;BMP_pressure;BME280_temperature;BME280_humidity;BME280_pressure;Samples;Min_cycle;Max_cycle;Signal;HPM_P1;HPM_P2
2023/06/20 00:00:06;;;;;;;8.10;5.15;;;;;;;;;;5035946;28;20033;-70
2023/06/20 00:02:51;;;;;;;9.70;4.88;;;;;;;;;;5039639;28;20038;-72
2023/06/20 00:05:37;;;;;;;7.88;4.85;;;;;;;;;;5031901;28;20443;-70
2023/06/20 00:08:22;;;;;;;8.20;4.97;;;;;;;;;;5032807;28;20583;-72
2023/06/20 00:11:07;;;;;;;7.63;4.95;;;;;;;;;;5038758;28;20395;-70
2023/06/20 00:13:52;;;;;;;6.68;4.95;;;;;;;;;;5042364;28;20255;-70
2023/06/20 00:16:38;;;;;;;7.35;4.68;;;;;;;;;;5030237;28;20068;-71
2023/06/20 00:19:23;;;;;;;8.93;5.57;;;;;;;;;;5037100;28;20141;-71
2023/06/20 00:22:08;;;;;;;6.90;5.45;;;;;;;;;;5032935;28;20158;-71
2023/06/20 00:24:54;;;;;;;7.32;4.95;;;;;;;;;;5027763;28;20029;-73
2023/06/20 00:27:39;;;;;;;8.70;5.55;;;;;;;;;;5030166;28;20172;-69
2023/06/20 00:30:24;;;;;;;5.43;4.20;;;;;;;;;;5045430;28;20071;-70
2023/06/20 00:33:09;;;;;;;11.25;6.15;;;;;;;;;;5026943;28;20384;-71
2023/06/20 00:35:54;;;;;;;8.63;6.55;;;;;;;;;;5032812;28;20041;-70
2023/06/20 00:38:40;;;;;;;6.53;5.00;;;;;;;;;;5033721;28;20040;-70
2023/06/20 00:41:25;;;;;;;10.25;5.25;;;;;;;;;;5027226;28;20408;-71
2023/06/20 00:44:10;;;;;;;8.68;5.68;;;;;;;;;;5035112;28;20044;-73
2023/06/20 00:46:55;;;;;;;10.57;5.40;;;;;;;;;;5029983;28;20036;-70
2023/06/20 00:49:42;;;;;;;9.32;5.85;;;;;;;;;;5032384;28;20384;-68
2023/06/20 00:52:27;;;;;;;9.35;6.20;;;;;;;;;;5030270;28;20075;-68
2023/06/20 00:55:12;;;;;;;7.85;5.35;;;;;;;;;;5030663;28;20314;-68
2023/06/20 00:57:58;;;;;;;9.23;6.30;;;;;;;;;;5032814;28;20037;-67
2023/06/20 01:00:43;;;;;;;8.30;5.22;;;;;;;;;;5026682;28;20086;-69
2023/06/20 01:03:29;;;;;;;7.43;6.13;;;;;;;;;;5035419;28;20083;-73
2023/06/20 01:06:21;;;;;;;8.38;5.63;;;;;;;;;;5042309;28;20041;-70
2023/06/20 01:09:44;;;;;;;9.88;6.47;;;;;;;;;;5034941;28;20029;-70
2023/06/20 01:12:33;;;;;;;9.27;5.75;;;;;;;;;;5012266;28;20198;-72
2023/06/20 01:15:25;;;;;;;11.48;5.97;;;;;;;;;;5029185;28;20255;-71
2023/06/20 01:18:25;;;;;;;8.55;5.65;;;;;;;;;;5033469;28;20128;-70
2023/06/20 01:21:13;;;;;;;8.10;5.20;;;;;;;;;;5044473;28;20090;-70
2023/06/20 01:24:00;;;;;;;7.32;4.95;;;;;;;;;;5034372;28;20035;-68
2023/06/20 01:27:08;;;;;;;9.35;5.50;;;;;;;;;;5029854;28;20068;-67
2023/06/20 01:30:02;;;;;;;8.95;4.97;;;;;;;;;;5031825;28;20025;-70
2023/06/20 01:32:48;;;;;;;7.75;5.25;;;;;;;;;;5038344;28;20040;-71
2023/06/20 01:35:35;;;;;;;10.32;5.88;;;;;;;;;;5033204;28;20029;-68
2023/06/20 01:38:22;;;;;;;9.20;4.90;;;;;;;;;;5031599;28;20025;-69
2023/06/20 01:41:07;;;;;;;10.38;5.28;;;;;;;;;;5042530;28;20055;-71
2023/06/20 01:43:56;;;;;;;8.75;5.22;;;;;;;;;;5039908;28;20052;-74
2023/06/20 01:46:41;;;;;;;6.85;4.60;;;;;;;;;;5042482;28;20041;-74
2023/06/20 01:49:27;;;;;;;10.20;5.38;;;;;;;;;;5040335;28;20487;-74
2023/06/20 01:52:14;;;;;;;7.95;4.80;;;;;;;;;;5037955;28;20055;-74
2023/06/20 01:55:04;;;;;;;7.65;5.50;;;;;;;;;;5044907;28;20033;-72
2023/06/20 01:57:50;;;;;;;8.40;5.03;;;;;;;;;;5038417;28;20041;-71
2023/06/20 02:00:36;;;;;;;5.18;4.20;;;;;;;;;;5035924;28;20047;-69
2023/06/20 02:03:22;;;;;;;8.43;5.30;;;;;;;;;;5041019;28;20043;-68
2023/06/20 02:06:08;;;;;;;7.05;4.75;;;;;;;;;;5039713;28;20040;-70
2023/06/20 02:08:54;;;;;;;7.50;4.32;;;;;;;;;;5039700;28;20033;-67
2023/06/20 02:11:39;;;;;;;6.43;4.65;;;;;;;;;;5036571;28;20044;-67
2023/06/20 02:14:25;;;;;;;6.85;4.78;;;;;;;;;;5041371;28;20204;-66
2023/06/20 02:17:12;;;;;;;7.63;5.18;;;;;;;;;;5031941;28;20115;-73
2023/06/20 02:19:58;;;;;;;7.47;4.70;;;;;;;;;;5041423;28;20032;-69
2023/06/20 02:22:44;;;;;;;5.75;4.38;;;;;;;;;;5036002;28;20037;-70
2023/06/20 02:25:33;;;;;;;6.57;4.47;;;;;;;;;;5047095;28;20558;-69
2023/06/20 02:28:20;;;;;;;5.43;4.10;;;;;;;;;;5038738;28;20033;-68
2023/06/20 02:31:08;;;;;;;6.20;4.85;;;;;;;;;;5038919;28;20029;-68
2023/06/20 02:33:56;;;;;;;8.23;4.68;;;;;;;;;;5050545;28;20098;-69
2023/06/20 02:36:45;;;;;;;6.00;4.60;;;;;;;;;;5024169;28;20454;-68
2023/06/20 02:39:30;;;;;;;;;;;;;;;;;;5039502;28;20082;-68
2023/06/20 02:42:16;;;;;;;6.65;4.00;;;;;;;;;;5045753;28;19913;-68
2023/06/20 02:45:02;;;;;;;5.60;4.20;;;;;;;;;;5037853;28;20033;-67
2023/06/20 02:48:20;;;;;;;6.82;4.53;;;;;;;;;;5035453;28;20072;-69
2023/06/20 02:51:22;;;;;;;9.60;5.20;;;;;;;;;;5018725;28;20098;-67
2023/06/20 02:54:13;;;;;;;6.57;4.47;;;;;;;;;;5033189;28;20032;-68
2023/06/20 02:56:59;;;;;;;9.00;4.28;;;;;;;;;;5048954;28;20033;-69
2023/06/20 02:59:46;;;;;;;6.68;3.80;;;;;;;;;;5028433;28;20040;-69
2023/06/20 03:02:32;;;;;;;6.30;4.70;;;;;;;;;;5027080;28;20476;-69
2023/06/20 03:05:18;;;;;;;8.55;4.85;;;;;;;;;;5038537;28;20041;-67
2023/06/20 03:08:04;;;;;;;9.98;5.30;;;;;;;;;;5040189;28;20044;-69
2023/06/20 03:10:49;;;;;;;6.70;4.68;;;;;;;;;;5032393;28;20361;-69
2023/06/20 03:13:34;;;;;;;7.35;4.32;;;;;;;;;;5039672;28;20108;-64
2023/06/20 03:16:20;;;;;;;4.90;4.18;;;;;;;;;;5040240;28;20476;-65
2023/06/20 03:19:05;;;;;;;7.20;4.50;;;;;;;;;;5039283;28;20494;-63
2023/06/20 03:21:51;;;;;;;5.95;4.38;;;;;;;;;;5035902;28;20156;-64
2023/06/20 03:24:36;;;;;;;5.82;4.07;;;;;;;;;;5038663;28;20039;-64
2023/06/20 03:27:21;;;;;;;8.30;4.45;;;;;;;;;;5044680;28;20025;-63
2023/06/20 03:30:06;;;;;;;6.28;4.65;;;;;;;;;;5043884;28;20036;-68
2023/06/20 03:32:52;;;;;;;7.03;4.30;;;;;;;;;;5054993;28;20031;-67
2023/06/20 03:35:37;;;;;;;6.53;4.78;;;;;;;;;;5041470;28;20037;-68
2023/06/20 03:38:22;;;;;;;9.32;4.13;;;;;;;;;;5034729;28;20044;-70
2023/06/20 03:41:08;;;;;;;5.25;3.75;;;;;;;;;;5045925;28;20028;-67
2023/06/20 03:43:53;;;;;;;6.05;4.38;;;;;;;;;;5034480;28;20041;-71
2023/06/20 03:46:38;;;;;;;8.55;4.68;;;;;;;;;;5035183;28;20036;-66
2023/06/20 03:49:23;;;;;;;6.15;4.70;;;;;;;;;;5037876;28;20040;-65
2023/06/20 03:52:08;;;;;;;6.15;4.38;;;;;;;;;;5035910;28;20039;-66
2023/06/20 03:54:54;;;;;;;8.30;4.43;;;;;;;;;;5044100;28;20039;-70
2023/06/20 03:57:39;;;;;;;5.95;4.53;;;;;;;;;;5043285;28;20119;-69
2023/06/20 04:00:24;;;;;;;8.00;4.43;;;;;;;;;;5034201;28;20053;-68
2023/06/20 04:03:09;;;;;;;6.30;4.57;;;;;;;;;;5036667;28;20111;-68
2023/06/20 04:05:54;;;;;;;7.07;4.60;;;;;;;;;;5040232;28;20025;-71
2023/06/20 04:08:40;;;;;;;7.50;4.47;;;;;;;;;;5030801;28;20031;-74
2023/06/20 04:11:25;;;;;;;7.00;4.40;;;;;;;;;;5045409;28;20037;-71
2023/06/20 04:14:10;;;;;;;9.52;5.05;;;;;;;;;;5038167;28;20148;-71
2023/06/20 04:16:55;;;;;;;6.65;4.82;;;;;;;;;;5034245;28;20033;-70
2023/06/20 04:19:41;;;;;;;6.20;4.50;;;;;;;;;;5037777;28;20480;-70
2023/06/20 04:22:26;;;;;;;8.68;5.05;;;;;;;;;;5031853;28;20021;-69
2023/06/20 04:25:12;;;;;;;10.35;5.07;;;;;;;;;;5037182;28;20104;-68
2023/06/20 04:27:58;;;;;;;7.63;4.57;;;;;;;;;;5029865;28;20032;-67
2023/06/20 04:30:43;;;;;;;7.90;4.55;;;;;;;;;;5033167;28;20033;-68
2023/06/20 04:33:28;;;;;;;7.82;5.15;;;;;;;;;;5040657;28;20400;-68
2023/06/20 04:36:13;;;;;;;6.38;5.15;;;;;;;;;;5028984;28;20029;-68
2023/06/20 04:38:58;;;;;;;11.50;5.95;;;;;;;;;;5028187;28;20467;-70
2023/06/20 04:41:44;;;;;;;9.20;5.10;;;;;;;;;;5030432;28;20040;-70
2023/06/20 04:44:29;;;;;;;6.82;5.13;;;;;;;;;;5033888;28;20033;-73
2023/06/20 04:47:14;;;;;;;7.43;4.88;;;;;;;;;;5034429;28;20063;-74
2023/06/20 04:50:03;;;;;;;7.25;4.60;;;;;;;;;;5041412;28;20060;-72
2023/06/20 04:52:48;;;;;;;8.37;4.87;;;;;;;;;;5046569;28;20037;-73
2023/06/20 04:55:33;;;;;;;7.20;4.10;;;;;;;;;;5025443;28;20136;-73
2023/06/20 04:58:19;;;;;;;7.32;4.82;;;;;;;;;;5033259;28;20035;-73
2023/06/20 05:01:04;;;;;;;6.25;4.35;;;;;;;;;;5035474;28;20491;-65
2023/06/20 05:03:49;;;;;;;6.53;4.53;;;;;;;;;;5033857;28;20047;-72
2023/06/20 05:06:34;;;;;;;10.00;4.57;;;;;;;;;;5033318;28;20106;-67
2023/06/20 05:09:19;;;;;;;7.32;4.57;;;;;;;;;;5033911;28;20724;-68
2023/06/20 05:12:05;;;;;;;8.27;4.43;;;;;;;;;;5030235;28;20044;-67
2023/06/20 05:14:50;;;;;;;7.45;4.65;;;;;;;;;;5033171;28;20490;-68
2023/06/20 05:17:35;;;;;;;7.13;4.45;;;;;;;;;;5023227;28;20068;-66
2023/06/20 05:20:21;;;;;;;5.75;3.80;;;;;;;;;;5028745;28;20114;-74
2023/06/20 05:23:06;;;;;;;6.45;4.22;;;;;;;;;;5025617;28;20047;-72
2023/06/20 05:25:51;;;;;;;7.75;4.25;;;;;;;;;;5026878;28;20063;-76
2023/06/20 05:28:37;;;;;;;8.73;5.13;;;;;;;;;;5030784;28;20219;-75
2023/06/20 05:31:24;;;;;;;7.63;4.70;;;;;;;;;;5032630;28;20407;-74
2023/06/20 05:34:10;;;;;;;8.55;4.93;;;;;;;;;;5016961;28;20029;-73
2023/06/20 05:36:55;;;;;;;7.70;4.53;;;;;;;;;;5046892;28;20082;-75
2023/06/20 05:39:40;;;;;;;8.60;4.90;;;;;;;;;;5030868;28;20033;-66
2023/06/20 05:42:25;;;;;;;13.05;5.13;;;;;;;;;;5043598;28;20483;-66
2023/06/20 05:45:11;;;;;;;9.25;4.60;;;;;;;;;;5029987;28;20403;-65
2023/06/20 05:47:58;;;;;;;7.20;4.32;;;;;;;;;;5048154;28;20121;-65
2023/06/20 05:50:43;;;;;;;6.50;4.20;;;;;;;;;;5037455;28;20099;-63
2023/06/20 05:53:28;;;;;;;7.63;3.92;;;;;;;;;;5029331;28;20590;-68
2023/06/20 05:56:14;;;;;;;10.13;4.38;;;;;;;;;;5022757;28;20040;-74
2023/06/20 05:58:59;;;;;;;8.77;4.35;;;;;;;;;;5030104;28;20116;-71
2023/06/20 06:01:45;;;;;;;6.57;3.67;;;;;;;;;;5031493;28;20045;-62
2023/06/20 06:04:31;;;;;;;7.15;4.18;;;;;;;;;;5034113;28;20122;-62
2023/06/20 06:07:17;;;;;;;5.95;3.65;;;;;;;;;;5044563;28;20032;-63
2023/06/20 06:10:02;;;;;;;7.93;4.45;;;;;;;;;;5028808;28;20038;-63
2023/06/20 06:12:47;;;;;;;9.60;3.88;;;;;;;;;;5030110;28;20509;-65
2023/06/20 06:15:32;;;;;;;8.93;3.80;;;;;;;;;;5030136;28;20120;-76
2023/06/20 06:18:18;;;;;;;7.55;3.58;;;;;;;;;;5031768;28;20067;-65
2023/06/20 06:21:03;;;;;;;6.43;4.10;;;;;;;;;;5031354;28;20045;-63
2023/06/20 06:23:48;;;;;;;8.05;3.72;;;;;;;;;;5031137;28;20500;-64
2023/06/20 06:26:35;;;;;;;8.30;3.60;;;;;;;;;;5031744;28;20431;-64
2023/06/20 06:29:20;;;;;;;5.97;3.92;;;;;;;;;;5035405;28;20044;-65
2023/06/20 06:32:06;;;;;;;7.07;3.55;;;;;;;;;;5032725;28;20115;-63
2023/06/20 06:34:52;;;;;;;7.05;3.58;;;;;;;;;;5037654;28;20123;-64
2023/06/20 06:37:40;;;;;;;8.10;3.40;;;;;;;;;;5033110;28;20045;-71
2023/06/20 06:40:25;;;;;;;4.77;3.30;;;;;;;;;;5029518;28;20029;-73
2023/06/20 06:43:10;;;;;;;5.10;3.03;;;;;;;;;;5030640;28;20021;-76
2023/06/20 06:45:56;;;;;;;6.45;3.90;;;;;;;;;;5037063;28;20526;-75
2023/06/20 06:48:41;;;;;;;5.40;3.13;;;;;;;;;;5034957;28;20020;-74
2023/06/20 06:51:26;;;;;;;7.03;3.67;;;;;;;;;;5036066;28;20037;-73
2023/06/20 06:54:11;;;;;;;8.23;3.85;;;;;;;;;;5029672;28;20037;-77
2023/06/20 06:56:56;;;;;;;12.68;3.90;;;;;;;;;;5035809;28;20025;-72
2023/06/20 06:59:42;;;;;;;8.70;3.85;;;;;;;;;;5037699;28;20041;-73
2023/06/20 07:02:27;;;;;;;5.30;3.10;;;;;;;;;;5032858;28;20032;-73
2023/06/20 07:05:12;;;;;;;6.20;4.00;;;;;;;;;;5034808;28;20040;-73
2023/06/20 07:07:57;;;;;;;8.00;3.40;;;;;;;;;;5035997;28;20032;-77
2023/06/20 07:10:43;;;;;;;8.32;4.35;;;;;;;;;;5033801;28;20064;-73
2023/06/20 07:13:28;;;;;;;5.82;3.72;;;;;;;;;;5034166;28;20507;-66
2023/06/20 07:16:13;;;;;;;9.70;4.05;;;;;;;;;;5036578;28;20434;-67
2023/06/20 07:18:58;;;;;;;6.68;3.65;;;;;;;;;;5037885;28;20037;-65
2023/06/20 07:21:44;;;;;;;7.60;3.80;;;;;;;;;;5033878;28;20021;-60
2023/06/20 07:24:29;;;;;;;6.15;3.80;;;;;;;;;;5035196;28;20035;-64
2023/06/20 07:27:14;;;;;;;10.80;4.30;;;;;;;;;;5032290;28;20037;-66
2023/06/20 07:30:00;;;;;;;6.25;3.83;;;;;;;;;;5034874;28;20037;-77
2023/06/20 07:32:45;;;;;;;7.45;4.57;;;;;;;;;;5045179;28;20083;-63
2023/06/20 07:35:30;;;;;;;8.32;3.70;;;;;;;;;;5027757;28;20034;-66
2023/06/20 07:38:15;;;;;;;8.88;4.72;;;;;;;;;;5029964;28;20652;-65
2023/06/20 07:41:01;;;;;;;6.45;3.70;;;;;;;;;;5042145;28;20029;-70
2023/06/20 07:43:46;;;;;;;5.65;3.70;;;;;;;;;;5051577;28;20032;-73
2023/06/20 07:46:31;;;;;;;5.82;3.47;;;;;;;;;;5035462;28;20052;-78
2023/06/20 07:49:16;;;;;;;4.72;3.53;;;;;;;;;;5031748;28;20029;-80
2023/06/20 07:52:03;;;;;;;5.72;4.00;;;;;;;;;;5036501;28;20435;-76
2023/06/20 07:54:48;;;;;;;8.60;4.50;;;;;;;;;;5035379;28;20041;-72
2023/06/20 07:57:33;;;;;;;5.75;3.47;;;;;;;;;;5035861;28;20032;-78
2023/06/20 08:00:18;;;;;;;7.78;3.63;;;;;;;;;;5027674;28;20033;-71
2023/06/20 08:03:03;;;;;;;7.07;3.95;;;;;;;;;;5037405;28;20040;-74
2023/06/20 08:05:49;;;;;;;5.63;3.72;;;;;;;;;;5034703;28;20036;-67
2023/06/20 08:08:34;;;;;;;6.93;3.67;;;;;;;;;;5035085;28;20036;-75
2023/06/20 08:11:20;;;;;;;7.45;4.20;;;;;;;;;;5033512;28;20133;-73
2023/06/20 08:14:06;;;;;;;5.68;3.83;;;;;;;;;;5030740;28;20044;-71
2023/06/20 08:16:51;;;;;;;5.72;3.80;;;;;;;;;;5030339;28;20037;-70
2023/06/20 08:19:36;;;;;;;7.55;3.88;;;;;;;;;;5029888;28;20041;-71
2023/06/20 08:22:21;;;;;;;7.57;4.50;;;;;;;;;;5035509;28;20063;-70
2023/06/20 08:25:07;;;;;;;8.50;4.95;;;;;;;;;;5031089;28;20171;-66
2023/06/20 08:27:52;;;;;;;8.02;4.07;;;;;;;;;;5031556;28;20120;-73
2023/06/20 08:30:37;;;;;;;7.50;4.50;;;;;;;;;;5030685;28;20405;-72
2023/06/20 08:33:22;;;;;;;8.57;4.13;;;;;;;;;;5032127;28;20041;-72
2023/06/20 08:36:10;;;;;;;8.73;4.07;;;;;;;;;;5032622;28;20137;-77
2023/06/20 08:38:56;;;;;;;7.20;4.20;;;;;;;;;;5032025;28;20025;-69
2023/06/20 08:41:41;;;;;;;6.43;4.22;;;;;;;;;;5028228;28;20115;-74
2023/06/20 08:44:26;;;;;;;5.75;3.75;;;;;;;;;;5031784;28;20036;-71
2023/06/20 08:47:11;;;;;;;8.20;4.60;;;;;;;;;;5033851;28;20036;-69
2023/06/20 08:49:57;;;;;;;9.30;4.70;;;;;;;;;;5031655;28;20529;-68
2023/06/20 08:52:49;;;;;;;6.15;4.22;;;;;;;;;;5050747;28;20033;-68
2023/06/20 08:55:35;;;;;;;8.27;4.13;;;;;;;;;;5031355;28;20126;-66
2023/06/20 08:58:20;;;;;;;8.02;4.70;;;;;;;;;;5028485;28;20086;-66
2023/06/20 09:01:08;;;;;;;6.18;4.35;;;;;;;;;;5035064;28;20045;-73
2023/06/20 09:03:54;;;;;;;6.43;4.18;;;;;;;;;;5032210;28;20038;-69
2023/06/20 09:06:39;;;;;;;6.70;4.45;;;;;;;;;;5034631;28;20421;-69
2023/06/20 09:09:25;;;;;;;8.18;4.28;;;;;;;;;;5016997;28;20033;-76
2023/06/20 09:12:10;;;;;;;7.22;4.97;;;;;;;;;;5028571;28;20033;-69
2023/06/20 09:14:55;;;;;;;7.50;4.38;;;;;;;;;;5020499;28;20044;-69
2023/06/20 09:17:42;;;;;;;10.02;4.47;;;;;;;;;;5032405;28;20044;-71
2023/06/20 09:20:28;;;;;;;6.70;4.75;;;;;;;;;;5029404;28;20375;-78
2023/06/20 09:23:25;;;;;;;9.48;4.43;;;;;;;;;;5030668;28;20036;-75
2023/06/20 09:26:17;;;;;;;8.02;4.20;;;;;;;;;;5042825;28;20064;-76
2023/06/20 09:29:09;;;;;;;7.35;4.25;;;;;;;;;;5027313;28;20112;-76
2023/06/20 09:31:54;;;;;;;12.43;4.95;;;;;;;;;;5028940;28;20033;-73
2023/06/20 09:34:40;;;;;;;10.43;5.55;;;;;;;;;;5030172;28;20394;-70
2023/06/20 09:37:26;;;;;;;7.47;4.05;;;;;;;;;;5031988;28;20060;-72
2023/06/20 09:40:12;;;;;;;9.80;5.00;;;;;;;;;;5028598;28;20047;-69
2023/06/20 09:42:57;;;;;;;6.70;4.13;;;;;;;;;;5030145;28;20612;-67
2023/06/20 09:45:43;;;;;;;7.38;4.50;;;;;;;;;;5029375;28;20555;-73
2023/06/20 09:48:56;;;;;;;7.25;4.28;;;;;;;;;;5033474;28;20037;-69
2023/06/20 09:51:44;;;;;;;10.88;4.72;;;;;;;;;;5032099;28;20032;-69
2023/06/20 09:54:39;;;;;;;9.40;4.57;;;;;;;;;;5033167;28;20032;-72
2023/06/20 09:57:26;;;;;;;9.85;4.47;;;;;;;;;;5029594;28;20089;-72
2023/06/20 10:00:15;;;;;;;6.57;4.13;;;;;;;;;;5028607;28;20040;-74
2023/06/20 10:03:04;;;;;;;9.20;4.13;;;;;;;;;;5028051;28;20037;-76
2023/06/20 10:05:50;;;;;;;8.68;4.38;;;;;;;;;;5035954;28;20434;-75
2023/06/20 10:08:35;;;;;;;10.05;4.53;;;;;;;;;;5030648;28;20061;-75
2023/06/20 10:11:21;;;;;;;7.82;4.78;;;;;;;;;;5035062;28;20041;-74
2023/06/20 10:14:08;;;;;;;8.35;4.72;;;;;;;;;;5029155;28;20071;-69
2023/06/20 10:16:53;;;;;;;9.45;4.75;;;;;;;;;;5027611;28;20496;-69
2023/06/20 10:19:48;;;;;;;6.63;4.18;;;;;;;;;;5025084;28;20037;-75
2023/06/20 10:22:38;;;;;;;7.82;4.15;;;;;;;;;;5030828;28;20028;-69
2023/06/20 10:25:25;;;;;;;6.95;4.65;;;;;;;;;;5043700;28;20033;-68
2023/06/20 10:28:12;;;;;;;7.25;3.80;;;;;;;;;;5029520;28;20400;-71
2023/06/20 10:30:57;;;;;;;5.97;4.20;;;;;;;;;;5034089;28;20077;-69
2023/06/20 10:33:44;;;;;;;7.00;4.40;;;;;;;;;;5033880;28;20087;-72
2023/06/20 10:36:31;;;;;;;6.70;3.95;;;;;;;;;;5036730;28;20408;-75
2023/06/20 10:39:17;;;;;;;7.22;4.13;;;;;;;;;;5034304;28;20029;-72
2023/06/20 10:42:05;;;;;;;7.82;4.18;;;;;;;;;;5033096;28;20494;-72
2023/06/20 10:45:10;;;;;;;8.25;4.63;;;;;;;;;;5053283;28;20052;-73
2023/06/20 10:48:01;;;;;;;8.00;4.47;;;;;;;;;;5025001;28;20037;-72
2023/06/20 10:50:46;;;;;;;7.32;4.05;;;;;;;;;;5034425;28;20056;-75
2023/06/20 10:53:32;;;;;;;6.03;3.90;;;;;;;;;;5041179;28;20033;-69
2023/06/20 10:56:24;;;;;;;7.55;3.85;;;;;;;;;;5035946;28;20036;-70
2023/06/20 10:59:13;;;;;;;5.63;3.88;;;;;;;;;;5035550;28;20379;-72
2023/06/20 11:01:58;;;;;;;7.43;4.25;;;;;;;;;;5036761;28;20082;-71
2023/06/20 11:04:44;;;;;;;6.53;4.20;;;;;;;;;;5035641;28;20639;-68
2023/06/20 11:07:29;;;;;;;5.65;4.45;;;;;;;;;;5036239;28;20035;-70
2023/06/20 11:10:16;;;;;;;10.18;5.53;;;;;;;;;;5016933;28;20025;-83
2023/06/20 11:13:05;;;;;;;8.88;4.00;;;;;;;;;;5033476;28;20028;-71
2023/06/20 11:15:50;;;;;;;;;;;;;;;;;;5035888;28;20107;-71
2023/06/20 11:18:35;;;;;;;6.55;3.78;;;;;;;;;;5049372;28;19916;-67
2023/06/20 11:21:21;;;;;;;9.50;4.47;;;;;;;;;;5035112;28;20056;-67
2023/06/20 11:24:06;;;;;;;6.95;4.35;;;;;;;;;;5033625;28;20053;-67
2023/06/20 11:26:51;;;;;;;7.28;4.30;;;;;;;;;;5033873;28;20041;-73
2023/06/20 11:29:39;;;;;;;7.97;4.50;;;;;;;;;;5047968;28;20416;-70
2023/06/20 11:32:24;;;;;;;7.13;4.17;;;;;;;;;;5026559;28;20480;-71
2023/06/20 11:35:10;;;;;;;8.18;4.03;;;;;;;;;;5033875;28;20039;-76
2023/06/20 11:37:55;;;;;;;9.57;3.90;;;;;;;;;;5021136;28;20041;-80
2023/06/20 11:40:41;;;;;;;8.13;4.40;;;;;;;;;;5031345;28;20365;-71
2023/06/20 11:43:27;;;;;;;7.43;3.80;;;;;;;;;;5031309;28;20033;-72
2023/06/20 11:46:12;;;;;;;8.13;3.60;;;;;;;;;;5034361;28;20034;-75
2023/06/20 11:48:58;;;;;;;6.10;4.00;;;;;;;;;;5035176;28;20029;-81
2023/06/20 11:51:43;;;;;;;8.23;3.60;;;;;;;;;;5046466;28;20033;-68
2023/06/20 11:54:28;;;;;;;9.82;4.43;;;;;;;;;;5031299;28;20040;-75
2023/06/20 11:57:27;;;;;;;7.25;4.18;;;;;;;;;;5034041;28;20043;-73
2023/06/20 12:00:14;;;;;;;9.65;4.43;;;;;;;;;;5045904;28;20547;-72
2023/06/20 12:03:00;;;;;;;7.90;4.70;;;;;;;;;;5044490;28;20025;-77
2023/06/20 12:05:45;;;;;;;7.47;4.00;;;;;;;;;;5028798;28;20499;-66
2023/06/20 12:08:33;;;;;;;9.65;4.40;;;;;;;;;;5053860;22;20053;-66
2023/06/20 12:11:18;;;;;;;9.90;4.50;;;;;;;;;;5031950;28;20111;-63
2023/06/20 12:14:04;;;;;;;8.68;4.20;;;;;;;;;;5033684;28;20044;-65
2023/06/20 12:16:49;;;;;;;10.77;4.93;;;;;;;;;;5033491;28;20037;-68
2023/06/20 12:19:35;;;;;;;8.85;4.57;;;;;;;;;;5033221;28;20495;-64
2023/06/20 12:22:20;;;;;;;9.15;4.63;;;;;;;;;;5032985;28;20037;-62
2023/06/20 12:25:06;;;;;;;7.40;4.35;;;;;;;;;;5033340;28;20037;-64
2023/06/20 12:27:51;;;;;;;8.00;4.50;;;;;;;;;;5033260;28;20026;-69
2023/06/20 12:30:36;;;;;;;10.50;4.72;;;;;;;;;;5033509;28;20029;-68
2023/06/20 12:33:21;;;;;;;9.93;4.63;;;;;;;;;;5019375;28;20478;-69
2023/06/20 12:36:08;;;;;;;7.05;4.53;;;;;;;;;;5033525;28;20029;-69
2023/06/20 12:38:53;;;;;;;9.88;4.82;;;;;;;;;;5033433;28;20033;-74
2023/06/20 12:41:39;;;;;;;8.40;4.72;;;;;;;;;;5034232;28;20428;-77
2023/06/20 12:44:25;;;;;;;7.93;4.30;;;;;;;;;;5034100;28;20033;-70
2023/06/20 12:47:11;;;;;;;11.35;4.45;;;;;;;;;;5033465;28;20079;-68
2023/06/20 12:50:01;;;;;;;8.85;4.70;;;;;;;;;;5032978;28;20025;-70
2023/06/20 12:52:46;;;;;;;7.90;4.80;;;;;;;;;;5033291;28;20067;-66
2023/06/20 12:55:32;;;;;;;11.40;4.60;;;;;;;;;;5032808;28;20029;-67
2023/06/20 12:58:18;;;;;;;7.25;4.63;;;;;;;;;;5032423;28;20040;-68
2023/06/20 13:01:03;;;;;;;11.60;5.20;;;;;;;;;;5032648;28;20484;-69
2023/06/20 13:03:49;;;;;;;9.20;5.32;;;;;;;;;;5032442;28;20041;-70
2023/06/20 13:06:35;;;;;;;10.63;5.72;;;;;;;;;;5032587;28;20060;-74
2023/06/20 13:09:20;;;;;;;12.05;5.95;;;;;;;;;;5032103;28;20029;-70
2023/06/20 13:12:06;;;;;;;10.13;4.82;;;;;;;;;;5032724;28;20499;-76
2023/06/20 13:14:52;;;;;;;10.55;5.78;;;;;;;;;;5032551;28;20029;-70
2023/06/20 13:17:37;;;;;;;15.65;4.93;;;;;;;;;;5032500;28;20033;-68
2023/06/20 13:20:26;;;;;;;13.32;5.70;;;;;;;;;;5031860;28;20034;-71
2023/06/20 13:23:11;;;;;;;12.18;4.95;;;;;;;;;;5032314;28;20025;-67
2023/06/20 13:25:57;;;;;;;10.82;5.68;;;;;;;;;;5032232;28;20045;-69
2023/06/20 13:28:43;;;;;;;11.10;5.22;;;;;;;;;;5032026;28;20034;-70
2023/06/20 13:31:28;;;;;;;8.43;4.80;;;;;;;;;;5032145;28;20061;-71
2023/06/20 13:34:14;;;;;;;12.45;5.32;;;;;;;;;;5034782;28;20420;-69
2023/06/20 13:36:59;;;;;;;9.52;5.68;;;;;;;;;;5035623;28;20029;-68
2023/06/20 13:39:45;;;;;;;12.15;5.30;;;;;;;;;;5035225;28;20400;-67
2023/06/20 13:42:30;;;;;;;13.82;4.82;;;;;;;;;;5036050;28;20037;-77
2023/06/20 13:45:17;;;;;;;8.45;5.18;;;;;;;;;;5036377;28;20048;-66
2023/06/20 13:48:03;;;;;;;11.75;5.30;;;;;;;;;;5035867;28;20033;-66
2023/06/20 13:50:48;;;;;;;10.43;5.03;;;;;;;;;;5036181;28;20029;-66
2023/06/20 13:53:35;;;;;;;7.30;4.68;;;;;;;;;;5035541;28;20037;-67
2023/06/20 13:56:20;;;;;;;9.32;5.50;;;;;;;;;;5035840;28;20044;-67
2023/06/20 13:59:06;;;;;;;9.68;5.90;;;;;;;;;;5035961;28;20029;-64
2023/06/20 14:01:51;;;;;;;12.32;5.20;;;;;;;;;;5034672;28;20099;-68
2023/06/20 14:04:38;;;;;;;10.40;5.40;;;;;;;;;;5036053;28;20033;-67
2023/06/20 14:07:24;;;;;;;12.02;5.18;;;;;;;;;;5035673;28;20108;-72
2023/06/20 14:10:10;;;;;;;11.52;4.85;;;;;;;;;;5036205;28;20033;-68
2023/06/20 14:12:55;;;;;;;8.55;4.40;;;;;;;;;;5035567;28;20025;-64
2023/06/20 14:15:41;;;;;;;10.90;5.05;;;;;;;;;;5035640;28;20025;-67
2023/06/20 14:18:26;;;;;;;10.00;5.32;;;;;;;;;;5036142;28;20116;-67
2023/06/20 14:21:12;;;;;;;13.88;5.05;;;;;;;;;;5035829;28;20037;-67
2023/06/20 14:23:58;;;;;;;11.52;5.63;;;;;;;;;;5035470;28;20026;-69
2023/06/20 14:26:44;;;;;;;10.65;5.18;;;;;;;;;;5035575;28;20465;-71
2023/06/20 14:29:31;;;;;;;10.50;5.65;;;;;;;;;;5034534;28;20052;-69
2023/06/20 14:32:17;;;;;;;13.32;6.03;;;;;;;;;;5035525;28;20465;-63
2023/06/20 14:35:03;;;;;;;13.63;5.07;;;;;;;;;;5035984;28;20030;-66
2023/06/20 14:37:49;;;;;;;11.32;5.32;;;;;;;;;;5035317;28;20036;-67
2023/06/20 14:40:35;;;;;;;10.80;4.85;;;;;;;;;;5034676;28;20021;-67
2023/06/20 14:43:20;;;;;;;15.10;6.30;;;;;;;;;;5035539;28;20029;-69
2023/06/20 14:46:06;;;;;;;10.95;4.90;;;;;;;;;;5034598;28;20026;-71
2023/06/20 14:48:52;;;;;;;11.50;5.00;;;;;;;;;;5034853;28;20105;-71
2023/06/20 14:51:37;;;;;;;14.38;5.93;;;;;;;;;;5035075;28;20037;-70
2023/06/20 14:54:23;;;;;;;8.50;4.85;;;;;;;;;;5034485;28;20026;-66
2023/06/20 14:57:08;;;;;;;15.88;5.20;;;;;;;;;;5033736;28;20037;-65
2023/06/20 14:59:54;;;;;;;11.55;4.45;;;;;;;;;;5033529;28;20033;-65
2023/06/20 15:02:40;;;;;;;13.48;5.05;;;;;;;;;;5034550;28;20040;-66
2023/06/20 15:05:26;;;;;;;10.70;5.53;;;;;;;;;;5034748;28;20393;-67
2023/06/20 15:08:11;;;;;;;10.13;4.50;;;;;;;;;;5033471;28;20443;-68
2023/06/20 15:10:59;;;;;;;13.95;5.13;;;;;;;;;;5034926;28;20022;-71
2023/06/20 15:13:45;;;;;;;13.00;6.20;;;;;;;;;;5034677;28;20112;-70
2023/06/20 15:16:30;;;;;;;9.90;4.38;;;;;;;;;;5035205;28;20029;-70
2023/06/20 15:19:16;;;;;;;8.60;4.18;;;;;;;;;;5034580;28;20056;-70
2023/06/20 15:22:02;;;;;;;11.32;4.82;;;;;;;;;;5035089;28;20026;-71
2023/06/20 15:24:47;;;;;;;10.48;4.78;;;;;;;;;;5034358;28;20538;-70
2023/06/20 15:27:35;;;;;;;13.98;5.30;;;;;;;;;;5033382;28;20120;-70
2023/06/20 15:30:22;;;;;;;11.45;4.72;;;;;;;;;;5034638;28;20053;-73
2023/06/20 15:33:07;;;;;;;10.18;4.45;;;;;;;;;;5033104;28;20029;-71
2023/06/20 15:35:53;;;;;;;10.75;5.32;;;;;;;;;;5033858;28;20112;-71
2023/06/20 15:38:38;;;;;;;8.45;4.45;;;;;;;;;;5034246;28;20499;-71
2023/06/20 15:41:24;;;;;;;13.80;4.97;;;;;;;;;;5034510;28;20025;-72
2023/06/20 15:44:09;;;;;;;13.45;4.53;;;;;;;;;;5033606;28;20038;-70
2023/06/20 15:46:55;;;;;;;21.92;7.07;;;;;;;;;;5034385;28;20104;-67
2023/06/20 15:49:41;;;;;;;19.33;4.88;;;;;;;;;;5034251;28;20057;-74
2023/06/20 15:52:26;;;;;;;17.00;5.93;;;;;;;;;;5032801;28;20122;-73
2023/06/20 15:55:12;;;;;;;25.45;5.80;;;;;;;;;;5034962;28;20029;-73
2023/06/20 15:57:58;;;;;;;14.98;5.53;;;;;;;;;;5032764;28;20464;-73
2023/06/20 16:00:44;;;;;;;18.13;6.18;;;;;;;;;;5033507;28;20033;-77
2023/06/20 16:03:29;;;;;;;11.10;4.78;;;;;;;;;;5033986;28;20108;-75
2023/06/20 16:06:15;;;;;;;10.88;4.78;;;;;;;;;;5032624;28;20487;-68
2023/06/20 16:09:00;;;;;;;10.43;4.65;;;;;;;;;;5033990;28;20056;-79
2023/06/20 16:11:46;;;;;;;12.23;5.65;;;;;;;;;;5033791;28;20078;-79
2023/06/20 16:14:32;;;;;;;14.70;4.97;;;;;;;;;;5034104;28;20057;-79
2023/06/20 16:17:17;;;;;;;13.45;4.82;;;;;;;;;;5034512;28;20033;-79
2023/06/20 16:20:06;;;;;;;13.75;5.07;;;;;;;;;;5033200;28;20057;-78
2023/06/20 16:22:52;;;;;;;11.43;4.18;;;;;;;;;;5033480;28;20057;-67
2023/06/20 16:25:38;;;;;;;12.00;4.72;;;;;;;;;;5033027;28;20083;-67
2023/06/20 16:28:23;;;;;;;17.67;5.68;;;;;;;;;;5033112;28;20036;-68
2023/06/20 16:31:09;;;;;;;10.52;4.97;;;;;;;;;;5033206;28;20470;-67
2023/06/20 16:33:54;;;;;;;16.80;5.22;;;;;;;;;;5033130;28;20052;-68